Date,TemperatureHighF,TemperatureAvgF,TemperatureLowF,DewpointHighF,DewpointAvgF,DewpointLowF,HumidityHigh,HumidityAvg,HumidityLow,PressureMaxIn,PressureMinIn,WindSpeedMaxMPH,WindSpeedAvgMPH,GustSpeedMaxMPH,PrecipitationSumIn
2013-6-1,77,67,62,66,61,56,95,82,50,29.77,29.65,7,-660,8,0.00
2013-6-2,62,59,53,58,52,44,88,77,59,30.03,29.77,3,1,10,0.00
2013-6-3,68,59,47,50,47,42,95,66,42,30.12,29.99,2,-43,6,0.00
2013-6-4,73,64,53,55,50,46,82,62,43,30.11,29.97,3,0,6,0.00
2013-6-5,75,66,58,60,56,53,93,72,49,30.01,29.85,3,0,5,0.05
2013-6-6,69,62,57,60,57,55,97,85,68,29.89,29.83,2,-60,3,0.11
2013-6-7,71,63,53,56,53,49,92,71,51,29.93,29.87,2,-127,6,0.00
2013-6-8,77,66,55,55,52,48,84,61,43,29.94,29.86,3,0,8,0.00
2013-6-9,76,68,63,64,59,53,87,73,60,29.89,29.73,6,-317,7,0.00
2013-6-10,78,72,64,61,59,58,84,66,54,29.85,29.80,1,-793,6,0.00
2013-6-11,85,73,59,72,64,57,94,75,59,29.90,29.74,2,-94,8,0.00
2013-6-12,93,81,72,72,68,64,86,67,43,29.82,29.56,6,-56,14,0.11
2013-6-13,83,74,65,64,57,51,88,58,35,29.97,29.65,4,-248,10,0.00
2013-6-14,80,71,60,59,56,52,80,61,42,30.09,29.91,0,-233,2,0.00
2013-6-15,79,71,66,71,65,58,95,82,66,29.99,29.81,7,-398,10,0.87
2013-6-16,82,71,63,69,65,62,97,82,58,29.93,29.86,1,-5,4,0.00
2013-6-17,88,76,63,68,62,54,96,67,32,29.92,29.84,2,-77,4,0.00
2013-6-18,80,71,63,62,59,55,89,67,45,29.99,29.83,1,-137,5,0.00
2013-6-19,84,71,57,60,55,49,79,59,37,30.07,29.99,0,-12,1,0.00
2013-6-20,89,78,65,65,61,56,76,58,35,30.07,29.97,2,0,13,0.00
2013-6-21,88,77,69,73,66,62,89,71,55,30.06,29.87,9,-230,16,0.08
2013-6-22,92,80,72,75,70,63,85,74,53,30.00,29.87,5,-446,14,0.00
2013-6-23,90,74,68,73,66,62,87,75,52,29.98,29.82,5,-129,10,0.00
2013-6-24,87,72,67,72,66,62,94,83,59,30.07,29.83,5,-502,8,0.63
2013-6-25,87,77,69,74,70,66,93,80,61,29.87,29.75,5,-210,9,0.02
2013-6-26,87,77,66,74,70,64,96,82,62,29.80,29.67,3,-507,15,0.59
2013-6-27,89,78,70,72,68,64,94,74,48,29.81,29.72,8,-583,10,0.00
2013-6-28,84,74,65,65,60,56,89,64,40,29.77,29.63,6,-325,20,0.00
2013-6-29,72,66,63,67,62,59,94,87,74,29.76,29.60,3,-133,5,0.44
2013-6-30,77,68,61,62,59,57,93,75,51,29.90,29.76,5,-58,8,0.00